Time;durP1;ratioP1;P1;durP2;ratioP2;P2;SDS_P1;SDS_P2;PMS_P1;PMS_P2;Temp;Humidity;BMP_temperature;BMP_pressure;BME280_temperature;BME280_humidity;BME280_pressure;Samples;Min_cycle;Max_cycle;Signal;HPM_P1;HPM_P2
2021/10/16 00:00:37;;;;;;;0.15;0.15;;;;;;;6.58;100.00;101348.16;5027188;28;20061;-82
2021/10/16 00:03:06;;;;;;;0.20;0.20;;;;;;;6.53;100.00;101341.81;5023515;28;20049;-82
2021/10/16 00:05:34;;;;;;;0.20;0.20;;;;;;;6.51;100.00;101350.16;5009375;28;20406;-82
2021/10/16 00:08:07;;;;;;;0.20;0.20;;;;;;;6.47;100.00;101338.97;5012281;28;20054;-81
2021/10/16 00:10:40;;;;;;;0.20;0.20;;;;;;;6.54;100.00;101338.88;5006958;28;20042;-81
2021/10/16 00:13:09;;;;;;;0.20;0.20;;;;;;;6.58;100.00;101355.44;5010604;28;20493;-81
2021/10/16 00:15:43;;;;;;;0.20;0.20;;;;;;;6.59;100.00;101351.69;5007962;28;20057;-81
2021/10/16 00:18:17;;;;;;;0.20;0.20;;;;;;;6.61;100.00;101346.84;5007318;28;20137;-82
2021/10/16 00:20:50;;;;;;;0.20;0.20;;;;;;;6.62;100.00;101340.41;5010100;28;20053;-81
2021/10/16 00:23:23;;;;;;;0.20;0.20;;;;;;;6.61;100.00;101347.66;5010235;28;20046;-81
2021/10/16 00:25:52;;;;;;;0.22;0.22;;;;;;;6.64;100.00;101359.91;5010157;28;20061;-82
2021/10/16 00:28:25;;;;;;;0.20;0.20;;;;;;;6.63;100.00;101350.16;5007562;28;20714;-82
2021/10/16 00:30:59;;;;;;;0.22;0.22;;;;;;;6.65;100.00;101356.16;5009018;28;20054;-81
2021/10/16 00:33:28;;;;;;;0.25;0.25;;;;;;;6.57;100.00;101348.38;5009958;28;20053;-82
2021/10/16 00:36:01;;;;;;;0.20;0.20;;;;;;;6.66;100.00;101356.97;5008691;28;20072;-81
2021/10/16 00:38:30;;;;;;;0.32;0.32;;;;;;;6.66;100.00;101352.38;5010240;28;20088;-82
2021/10/16 00:41:05;;;;;;;0.20;0.20;;;;;;;6.63;100.00;101347.47;5025871;28;20057;-81
2021/10/16 00:43:33;;;;;;;0.20;0.20;;;;;;;6.65;100.00;101358.84;5008427;28;20049;-81
2021/10/16 00:46:03;;;;;;;0.22;0.22;;;;;;;6.60;100.00;101350.63;5010363;28;20541;-81
2021/10/16 00:48:31;;;;;;;0.20;0.20;;;;;;;6.59;100.00;101344.41;5007190;28;20395;-82
2021/10/16 00:51:05;;;;;;;0.20;0.20;;;;;;;6.57;100.00;101356.50;5010743;28;20049;-81
2021/10/16 00:53:34;;;;;;;0.20;0.20;;;;;;;6.54;100.00;101348.88;5010553;28;20041;-81
2021/10/16 00:56:03;;;;;;;0.20;0.20;;;;;;;6.49;100.00;101346.03;5025032;28;20061;-81
2021/10/16 00:58:36;;;;;;;0.30;0.20;;;;;;;6.50;100.00;101348.50;5009015;28;20046;-82
2021/10/16 01:01:12;;;;;;;0.30;0.30;;;;;;;6.50;100.00;101353.91;5008612;28;20058;-82
2021/10/16 01:03:45;;;;;;;0.25;0.25;;;;;;;6.51;100.00;101357.47;5018994;28;20057;-81
2021/10/16 01:06:13;;;;;;;0.30;0.30;;;;;;;6.54;100.00;101360.50;5011398;28;20056;-81
2021/10/16 01:08:47;;;;;;;0.30;0.30;;;;;;;6.55;100.00;101362.16;5027399;28;20065;-81
2021/10/16 01:11:16;;;;;;;0.20;0.20;;;;;;;6.54;100.00;101352.38;5010532;28;20034;-81
2021/10/16 01:13:44;;;;;;;0.20;0.20;;;;;;;6.61;100.00;101354.97;5011811;28;20050;-81
2021/10/16 01:16:21;;;;;;;0.20;0.20;;;;;;;6.64;100.00;101358.03;5023715;28;20049;-81
2021/10/16 01:18:55;;;;;;;0.20;0.20;;;;;;;6.73;100.00;101352.28;5009286;28;20057;-82
2021/10/16 01:21:31;;;;;;;0.20;0.20;;;;;;;6.78;100.00;101355.06;5007156;28;20054;-81
2021/10/16 01:24:00;;;;;;;0.20;0.20;;;;;;;6.75;100.00;101356.38;5026178;28;20053;-82
2021/10/16 01:26:34;;;;;;;0.20;0.20;;;;;;;6.77;100.00;101356.97;5022124;28;20046;-82
2021/10/16 01:29:09;;;;;;;0.20;0.20;;;;;;;6.69;100.00;101345.69;5010318;28;20061;-82
2021/10/16 01:31:42;;;;;;;0.20;0.20;;;;;;;6.65;100.00;101337.22;5008905;28;20050;-82
2021/10/16 01:34:10;;;;;;;0.20;0.20;;;;;;;6.66;100.00;101360.50;5010006;28;20060;-82
2021/10/16 01:36:41;;;;;;;0.28;0.28;;;;;;;6.66;100.00;101354.25;5010332;28;20056;-81
2021/10/16 01:39:16;;;;;;;0.30;0.30;;;;;;;6.63;100.00;101359.09;5026374;28;20493;-81
2021/10/16 01:41:51;;;;;;;0.20;0.20;;;;;;;6.60;100.00;101366.84;5024766;28;20057;-82
2021/10/16 01:44:19;;;;;;;0.20;0.20;;;;;;;6.62;100.00;101362.84;5023581;28;20122;-82
2021/10/16 01:46:53;;;;;;;0.30;0.30;;;;;;;6.67;100.00;101364.03;5009254;28;20414;-82
2021/10/16 01:49:30;;;;;;;0.30;0.30;;;;;;;6.70;100.00;101363.53;5011367;28;20041;-82
2021/10/16 01:52:00;;;;;;;0.20;0.20;;;;;;;6.72;100.00;101361.44;5020660;28;20055;-82
2021/10/16 01:54:33;;;;;;;0.20;0.20;;;;;;;6.68;100.00;101361.06;5025697;28;20406;-82
2021/10/16 01:57:02;;;;;;;0.20;0.20;;;;;;;6.72;100.00;101362.25;5008787;28;20042;-82
2021/10/16 01:59:40;;;;;;;0.30;0.30;;;;;;;6.75;100.00;101356.38;5017271;28;20379;-81
2021/10/16 02:02:26;;;;;;;0.30;0.30;;;;;;;6.75;100.00;101353.69;5010609;28;20065;-82
2021/10/16 02:05:17;;;;;;;0.30;0.30;;;;;;;6.88;100.00;101349.88;5016366;28;20045;-82
2021/10/16 02:07:53;;;;;;;0.30;0.30;;;;;;;6.85;100.00;101352.22;5013028;28;20050;-81
2021/10/16 02:10:27;;;;;;;0.20;0.20;;;;;;;6.80;100.00;101351.06;5011241;28;20045;-81
2021/10/16 02:13:01;;;;;;;0.20;0.20;;;;;;;6.72;100.00;101348.72;5034101;28;20057;-82
2021/10/16 02:15:41;;;;;;;0.30;0.30;;;;;;;6.85;100.00;101368.47;5010192;28;20046;-81
2021/10/16 02:18:27;;;;;;;0.20;0.20;;;;;;;6.85;100.00;101365.75;5013373;28;20057;-82
2021/10/16 02:21:00;;;;;;;0.30;0.30;;;;;;;6.76;100.00;101355.31;5012050;28;20050;-81
2021/10/16 02:23:36;;;;;;;0.30;0.30;;;;;;;6.80;100.00;101371.91;5015910;28;20054;-81
2021/10/16 02:26:05;;;;;;;0.20;0.20;;;;;;;6.77;100.00;101365.06;5024348;28;20049;-81
2021/10/16 02:28:36;;;;;;;0.20;0.20;;;;;;;6.68;100.00;101368.38;5029523;28;20046;-82
2021/10/16 02:31:29;;;;;;;0.20;0.20;;;;;;;6.68;100.00;101360.25;5011831;28;21059;-82
2021/10/16 02:34:05;;;;;;;0.20;0.20;;;;;;;6.68;100.00;101371.91;5012937;28;20054;-81
2021/10/16 02:36:41;;;;;;;0.20;0.20;;;;;;;6.58;100.00;101360.88;5010077;28;20046;-81
2021/10/16 02:39:16;;;;;;;0.20;0.20;;;;;;;6.61;100.00;101360.38;5014609;28;20054;-82
2021/10/16 02:41:50;;;;;;;0.30;0.30;;;;;;;6.56;100.00;101373.78;5011075;28;20057;-81
2021/10/16 02:44:24;;;;;;;0.20;0.20;;;;;;;6.46;100.00;101372.50;5030836;28;20042;-81
2021/10/16 02:46:58;;;;;;;0.20;0.20;;;;;;;6.42;100.00;101379.44;5012280;28;20281;-81
2021/10/16 02:49:31;;;;;;;0.30;0.30;;;;;;;6.36;100.00;101379.56;5028150;28;20065;-82
2021/10/16 02:52:00;;;;;;;0.20;0.20;;;;;;;6.20;100.00;101371.09;5024158;28;20046;-81
2021/10/16 02:54:35;;;;;;;0.20;0.20;;;;;;;6.26;100.00;101377.44;5013324;28;20050;-81
2021/10/16 02:57:09;;;;;;;0.20;0.20;;;;;;;6.19;100.00;101371.31;5009898;28;20056;-81
2021/10/16 02:59:42;;;;;;;0.20;0.20;;;;;;;6.15;100.00;101380.94;5012821;28;20050;-82
2021/10/16 03:02:15;;;;;;;0.30;0.30;;;;;;;6.17;100.00;101376.94;5026912;28;20046;-81
2021/10/16 03:04:43;;;;;;;0.20;0.20;;;;;;;6.12;100.00;101368.72;5022092;28;20426;-81
2021/10/16 03:07:19;;;;;;;0.20;0.20;;;;;;;6.15;100.00;101383.66;5027939;28;20404;-82
2021/10/16 03:09:53;;;;;;;0.20;0.20;;;;;;;6.21;100.00;101380.00;5011812;28;20057;-82
2021/10/16 03:12:27;;;;;;;0.20;0.20;;;;;;;6.18;100.00;101385.88;5028133;28;20445;-81
2021/10/16 03:15:03;;;;;;;0.20;0.20;;;;;;;6.26;100.00;101388.25;5011622;28;20054;-81
2021/10/16 03:17:38;;;;;;;0.20;0.20;;;;;;;6.23;100.00;101386.81;5014506;28;20383;-81
2021/10/16 03:20:13;;;;;;;0.20;0.20;;;;;;;6.32;100.00;101383.78;5012800;28;20054;-81
2021/10/16 03:22:46;;;;;;;0.30;0.30;;;;;;;6.35;100.00;101381.41;5021023;28;20050;-81
2021/10/16 03:25:16;;;;;;;0.28;0.28;;;;;;;6.40;100.00;101395.06;5012293;28;20057;-81
2021/10/16 03:27:49;;;;;;;0.20;0.20;;;;;;;6.40;100.00;101388.84;5027997;28;20057;-81
2021/10/16 03:30:23;;;;;;;0.20;0.20;;;;;;;6.44;100.00;101390.84;5012842;28;20053;-82
2021/10/16 03:32:56;;;;;;;0.20;0.20;;;;;;;6.42;100.00;101384.00;5027082;28;20056;-82
2021/10/16 03:35:29;;;;;;;0.20;0.20;;;;;;;6.49;100.00;101384.75;5009045;28;20054;-82
2021/10/16 03:38:02;;;;;;;0.20;0.20;;;;;;;6.47;100.00;101384.94;5018785;28;20980;-82
2021/10/16 03:40:37;;;;;;;0.30;0.30;;;;;;;6.46;100.00;101386.03;5025181;28;20052;-82
2021/10/16 03:43:10;;;;;;;0.20;0.20;;;;;;;6.47;100.00;101387.66;5012022;28;20050;-82
2021/10/16 03:45:45;;;;;;;0.20;0.20;;;;;;;6.50;100.00;101388.25;5011578;28;20068;-82
2021/10/16 03:48:20;;;;;;;0.28;0.28;;;;;;;6.49;100.00;101386.59;5030073;28;20065;-82
2021/10/16 03:50:53;;;;;;;0.20;0.20;;;;;;;6.54;100.00;101390.25;5009845;28;20054;-82
2021/10/16 03:53:26;;;;;;;0.20;0.20;;;;;;;6.49;100.00;101387.44;5028707;28;20049;-82
2021/10/16 03:55:57;;;;;;;0.22;0.22;;;;;;;6.46;100.00;101383.31;5012209;28;20042;-81
2021/10/16 03:58:26;;;;;;;0.20;0.20;;;;;;;6.41;100.00;101372.38;5012066;28;20042;-81
2021/10/16 04:00:59;;;;;;;0.20;0.20;;;;;;;6.44;100.00;101377.31;5014630;28;20057;-82
2021/10/16 04:03:33;;;;;;;0.30;0.30;;;;;;;6.38;100.00;101374.72;5011295;28;20034;-81
2021/10/16 04:06:07;;;;;;;0.30;0.30;;;;;;;6.34;100.00;101378.94;5028779;28;20061;-81
2021/10/16 04:08:40;;;;;;;0.30;0.30;;;;;;;6.31;100.00;101377.53;5010971;28;20046;-82
2021/10/16 04:11:10;;;;;;;0.20;0.20;;;;;;;6.28;100.00;101378.00;5011635;28;20050;-82
2021/10/16 04:13:43;;;;;;;0.20;0.20;;;;;;;6.27;100.00;101382.59;5007387;28;20049;-82
2021/10/16 04:16:17;;;;;;;0.30;0.30;;;;;;;6.23;100.00;101386.81;5011583;28;20054;-82
2021/10/16 04:18:46;;;;;;;0.20;0.20;;;;;;;6.25;100.00;101382.00;5013959;28;20049;-81
2021/10/16 04:21:14;;;;;;;0.30;0.30;;;;;;;6.22;100.00;101381.66;5010879;28;20050;-81
2021/10/16 04:23:53;;;;;;;0.20;0.20;;;;;;;6.14;100.00;101380.09;5013559;28;20041;-81
2021/10/16 04:26:28;;;;;;;0.30;0.30;;;;;;;6.16;100.00;101378.00;5026533;28;20065;-82
2021/10/16 04:28:56;;;;;;;0.25;0.25;;;;;;;6.27;100.00;101379.91;5011677;28;20046;-82
2021/10/16 04:31:56;;;;;;;0.20;0.20;;;;;;;6.24;100.00;101379.53;5006661;28;20073;-82
2021/10/16 04:34:35;;;;;;;0.20;0.20;;;;;;;6.21;100.00;101380.00;5010968;28;20068;-82
2021/10/16 04:37:09;;;;;;;0.20;0.20;;;;;;;6.13;100.00;101376.59;5011460;28;20053;-82
2021/10/16 04:39:43;;;;;;;0.17;0.17;;;;;;;6.18;100.00;101378.59;5011352;28;20053;-82
2021/10/16 04:42:18;;;;;;;0.20;0.20;;;;;;;6.12;100.00;101372.25;5000869;28;20053;-82
2021/10/16 04:44:52;;;;;;;0.28;0.28;;;;;;;6.02;100.00;101368.47;5011689;28;20046;-82
2021/10/16 04:47:20;;;;;;;0.20;0.20;;;;;;;6.09;100.00;101383.53;5026480;28;20053;-82
2021/10/16 04:49:48;;;;;;;0.30;0.30;;;;;;;6.01;100.00;101366.81;5025984;28;20689;-82
2021/10/16 04:52:22;;;;;;;0.20;0.20;;;;;;;6.03;100.00;101376.31;5013843;28;20045;-82
2021/10/16 04:54:50;;;;;;;0.20;0.20;;;;;;;6.08;100.00;101372.94;5008728;28;20073;-82
2021/10/16 04:57:25;;;;;;;0.30;0.30;;;;;;;6.06;100.00;101388.56;5012756;28;20046;-82
2021/10/16 04:59:58;;;;;;;0.20;0.20;;;;;;;6.04;100.00;101379.88;5010762;28;20048;-82
2021/10/16 05:02:28;;;;;;;0.20;0.20;;;;;;;6.03;100.00;101384.44;5010472;28;20429;-82
2021/10/16 05:05:02;;;;;;;0.20;0.20;;;;;;;5.99;100.00;101390.53;5011883;28;20048;-82
2021/10/16 05:07:42;;;;;;;0.30;0.30;;;;;;;5.98;100.00;101394.28;5010881;28;20041;-82
2021/10/16 05:10:15;;;;;;;;;;;;;;;5.99;100.00;101393.25;5012783;28;20050;-82
2021/10/16 05:12:51;;;;;;;0.17;0.17;;;;;;;5.91;100.00;101392.50;5016124;28;19928;-82
2021/10/16 05:16:17;;;;;;;0.20;0.20;;;;;;;5.91;100.00;101395.19;5013591;28;20049;-81
2021/10/16 05:18:50;;;;;;;0.20;0.20;;;;;;;5.90;100.00;101400.84;5010209;28;20046;-81
2021/10/16 05:21:19;;;;;;;0.25;0.25;;;;;;;5.83;100.00;101408.19;5010652;28;20413;-82
2021/10/16 05:23:53;;;;;;;0.20;0.20;;;;;;;5.78;100.00;101409.69;5012896;28;20053;-82
2021/10/16 05:26:28;;;;;;;0.15;0.15;;;;;;;5.74;100.00;101405.00;5016514;28;20045;-83
2021/10/16 05:28:59;;;;;;;0.20;0.20;;;;;;;5.69;100.00;101394.06;5027590;28;20061;-83
2021/10/16 05:31:32;;;;;;;0.20;0.20;;;;;;;5.66;100.00;101403.44;5020282;28;20076;-81
2021/10/16 05:34:05;;;;;;;0.20;0.20;;;;;;;5.64;100.00;101397.47;5015669;28;20057;-82
2021/10/16 05:36:38;;;;;;;0.20;0.20;;;;;;;5.68;100.00;101400.53;5026818;28;20056;-82
2021/10/16 05:39:06;;;;;;;0.30;0.30;;;;;;;5.66;100.00;101408.03;5014345;28;20056;-82
2021/10/16 05:41:42;;;;;;;0.20;0.20;;;;;;;5.70;100.00;101411.91;5013087;28;20076;-81
2021/10/16 05:44:13;;;;;;;0.20;0.20;;;;;;;5.64;100.00;101410.16;5002681;28;20046;-81
2021/10/16 05:46:47;;;;;;;0.30;0.30;;;;;;;5.64;100.00;101397.47;5010265;28;20053;-82
2021/10/16 05:49:30;;;;;;;0.28;0.28;;;;;;;5.64;100.00;101407.44;5017017;28;20041;-82
2021/10/16 05:52:04;;;;;;;0.20;0.20;;;;;;;5.59;100.00;101411.66;5020169;28;20056;-82
2021/10/16 05:54:40;;;;;;;0.17;0.17;;;;;;;5.60;100.00;101413.28;5021530;28;20050;-82
2021/10/16 05:57:08;;;;;;;0.20;0.20;;;;;;;5.60;100.00;101415.97;5030336;28;20050;-82
2021/10/16 05:59:38;;;;;;;0.20;0.20;;;;;;;5.60;100.00;101424.09;5010040;28;20058;-83
2021/10/16 06:02:09;;;;;;;0.20;0.20;;;;;;;5.52;100.00;101421.69;5010779;28;20045;-83
2021/10/16 06:04:44;;;;;;;0.20;0.20;;;;;;;5.55;100.00;101429.38;5026701;28;20049;-81
2021/10/16 06:07:22;;;;;;;0.20;0.20;;;;;;;5.58;100.00;101436.19;5017332;28;20057;-82
2021/10/16 06:09:56;;;;;;;0.20;0.20;;;;;;;5.45;100.00;101424.50;5039380;28;20143;-82
2021/10/16 06:12:29;;;;;;;0.17;0.17;;;;;;;5.50;100.00;101423.81;5029553;28;20049;-82
2021/10/16 06:15:04;;;;;;;0.20;0.20;;;;;;;5.69;100.00;101440.81;5019757;28;20057;-82
2021/10/16 06:17:38;;;;;;;0.20;0.20;;;;;;;5.67;100.00;101440.19;5009559;28;20418;-82
2021/10/16 06:20:07;;;;;;;0.20;0.20;;;;;;;5.68;100.00;101435.63;5006784;28;20057;-82
2021/10/16 06:22:41;;;;;;;0.20;0.20;;;;;;;5.65;100.00;101438.78;5010901;28;20042;-82
2021/10/16 06:25:14;;;;;;;0.20;0.20;;;;;;;5.69;100.00;101438.09;5023853;28;20050;-83
2021/10/16 06:27:48;;;;;;;0.20;0.20;;;;;;;5.68;100.00;101431.06;5026090;28;20061;-82
2021/10/16 06:30:22;;;;;;;0.20;0.20;;;;;;;5.69;100.00;101435.41;5017862;28;20050;-83
2021/10/16 06:32:52;;;;;;;0.20;0.20;;;;;;;5.77;100.00;101440.50;5009225;28;20054;-82
2021/10/16 06:35:20;;;;;;;0.20;0.20;;;;;;;5.85;100.00;101441.22;5030049;28;20057;-83
2021/10/16 06:37:50;;;;;;;0.30;0.30;;;;;;;5.89;100.00;101440.53;5012697;28;20046;-81
2021/10/16 06:40:30;;;;;;;0.30;0.30;;;;;;;5.85;100.00;101447.44;5014630;28;20516;-82
2021/10/16 06:43:19;;;;;;;0.20;0.20;;;;;;;5.87;100.00;101439.94;5003571;28;20061;-81
2021/10/16 06:46:12;;;;;;;0.20;0.20;;;;;;;5.96;100.00;101456.63;5009983;28;20404;-83
2021/10/16 06:49:04;;;;;;;0.20;0.20;;;;;;;6.00;100.00;101465.16;5020084;28;20053;-82
2021/10/16 06:51:38;;;;;;;0.20;0.20;;;;;;;6.16;100.00;101464.50;5007310;28;20046;-84
2021/10/16 06:54:13;;;;;;;0.20;0.20;;;;;;;6.22;100.00;101463.56;5026280;28;20045;-83
2021/10/16 06:56:47;;;;;;;0.20;0.20;;;;;;;6.32;100.00;101467.59;5010242;28;20052;-83
2021/10/16 06:59:21;;;;;;;0.20;0.20;;;;;;;6.49;100.00;101470.44;5034220;28;20072;-81
2021/10/16 07:01:55;;;;;;;0.20;0.20;;;;;;;6.61;100.00;101463.16;5023966;28;20486;-82
2021/10/16 07:04:42;;;;;;;0.22;0.22;;;;;;;6.68;100.00;101468.47;5030730;28;20089;-82
2021/10/16 07:07:12;;;;;;;0.20;0.20;;;;;;;6.68;100.00;101469.28;5005842;28;20046;-81
2021/10/16 07:09:52;;;;;;;0.30;0.30;;;;;;;6.70;100.00;101477.16;5015051;28;20057;-82
2021/10/16 07:12:26;;;;;;;0.20;0.20;;;;;;;6.73;100.00;101477.50;5011326;28;20053;-81
2021/10/16 07:15:00;;;;;;;0.20;0.20;;;;;;;6.70;100.00;101479.84;5008375;28;20060;-81
2021/10/16 07:17:34;;;;;;;0.20;0.20;;;;;;;6.72;100.00;101485.88;5020097;28;20057;-81
2021/10/16 07:20:08;;;;;;;0.20;0.20;;;;;;;6.70;100.00;101480.69;5026585;28;20058;-80
2021/10/16 07:22:44;;;;;;;0.30;0.30;;;;;;;6.53;100.00;101485.97;5000901;28;20065;-82
2021/10/16 07:25:12;;;;;;;0.20;0.20;;;;;;;6.53;100.00;101485.13;5009677;28;20045;-81
2021/10/16 07:27:41;;;;;;;0.20;0.20;;;;;;;6.51;100.00;101485.38;5022598;28;20046;-83
2021/10/16 07:30:15;;;;;;;0.20;0.20;;;;;;;6.59;100.00;101489.63;5015013;28;20049;-82
2021/10/16 07:33:34;;;;;;;0.30;0.30;;;;;;;6.72;100.00;101494.78;5013601;28;20509;-82
2021/10/16 07:36:09;;;;;;;0.20;0.20;;;;;;;6.84;100.00;101485.88;5005857;28;20514;-82
2021/10/16 07:38:44;;;;;;;0.20;0.20;;;;;;;6.95;100.00;101490.47;5035126;28;20045;-81
2021/10/16 07:41:12;;;;;;;0.30;0.30;;;;;;;6.94;100.00;101489.63;5012396;28;20052;-82
2021/10/16 07:43:48;;;;;;;0.20;0.20;;;;;;;6.74;100.00;101460.22;5005707;28;20046;-81
2021/10/16 07:46:22;;;;;;;0.28;0.28;;;;;;;7.00;100.00;101500.56;5033183;28;20046;-82
2021/10/16 07:48:55;;;;;;;0.20;0.20;;;;;;;7.04;100.00;101501.75;5015615;28;20417;-80
2021/10/16 07:51:29;;;;;;;0.20;0.20;;;;;;;7.02;100.00;101502.00;5036052;28;20858;-82
2021/10/16 07:54:12;;;;;;;0.20;0.20;;;;;;;7.07;100.00;101501.28;5021763;28;20054;-82
2021/10/16 07:56:45;;;;;;;0.10;0.10;;;;;;;7.05;100.00;101511.53;5010047;28;20046;-83
2021/10/16 07:59:13;;;;;;;0.30;0.30;;;;;;;7.05;100.00;101508.81;5033820;28;20402;-81
2021/10/16 08:01:47;;;;;;;0.20;0.20;;;;;;;7.20;100.00;101502.94;5011661;28;20045;-82
2021/10/16 08:04:22;;;;;;;0.20;0.20;;;;;;;7.34;100.00;101515.16;5013205;28;20050;-81
2021/10/16 08:07:51;;;;;;;0.20;0.20;;;;;;;7.37;100.00;101511.16;5001650;28;20045;-82
2021/10/16 08:10:27;;;;;;;0.20;0.20;;;;;;;7.28;100.00;101506.09;5010106;28;20046;-83
2021/10/16 08:13:02;;;;;;;0.10;0.10;;;;;;;7.31;100.00;101519.16;5022674;28;20056;-82
2021/10/16 08:15:38;;;;;;;0.20;0.20;;;;;;;7.37;100.00;101519.28;5012234;28;21404;-82
2021/10/16 08:18:11;;;;;;;0.20;0.20;;;;;;;7.31;100.00;101502.91;5008844;28;20061;-84
2021/10/16 08:20:45;;;;;;;0.22;0.22;;;;;;;7.31;100.00;101497.50;5012914;28;20054;-84
2021/10/16 08:23:18;;;;;;;0.10;0.10;;;;;;;7.61;100.00;101517.31;5014338;28;20060;-84
2021/10/16 08:25:48;;;;;;;0.20;0.20;;;;;;;7.57;100.00;101511.59;5012860;28;20053;-82
2021/10/16 08:28:16;;;;;;;0.20;0.20;;;;;;;7.76;100.00;101512.25;5011820;28;20061;-83
2021/10/16 08:30:51;;;;;;;0.20;0.20;;;;;;;7.88;100.00;101514.09;5028118;28;20065;-82
2021/10/16 08:33:25;;;;;;;0.15;0.15;;;;;;;7.85;100.00;101509.16;5010323;28;20057;-81
2021/10/16 08:35:58;;;;;;;0.20;0.20;;;;;;;7.82;100.00;101510.47;5007594;28;20792;-83
2021/10/16 08:38:26;;;;;;;0.20;0.20;;;;;;;7.88;100.00;101517.59;5005302;28;20822;-81
2021/10/16 08:40:56;;;;;;;0.20;0.20;;;;;;;8.01;100.00;101521.94;5012200;28;20057;-83
2021/10/16 08:43:29;;;;;;;0.22;0.22;;;;;;;8.05;100.00;101514.97;5008769;28;20064;-81
2021/10/16 08:46:02;;;;;;;0.20;0.20;;;;;;;7.98;100.00;101504.28;5010347;28;20061;-84
2021/10/16 08:48:31;;;;;;;0.20;0.20;;;;;;;8.17;100.00;101520.31;5011471;28;20529;-83
2021/10/16 08:51:08;;;;;;;0.20;0.20;;;;;;;8.24;100.00;101514.75;5010335;28;20058;-84
2021/10/16 08:53:41;;;;;;;0.20;0.20;;;;;;;8.31;100.00;101510.00;5010790;28;20057;-82
2021/10/16 08:56:22;;;;;;;0.20;0.20;;;;;;;8.33;100.00;101508.69;5005754;28;20486;-82
2021/10/16 08:58:55;;;;;;;0.20;0.20;;;;;;;8.33;100.00;101502.44;5009806;28;21233;-83
2021/10/16 09:01:30;;;;;;;0.10;0.10;;;;;;;8.38;100.00;101507.94;5007262;28;20046;-84
2021/10/16 09:04:00;;;;;;;0.20;0.20;;;;;;;8.39;100.00;101500.66;5005745;28;20084;-83
2021/10/16 09:06:41;;;;;;;0.30;0.30;;;;;;;8.38;100.00;101502.53;4997335;28;20060;-82
2021/10/16 09:09:16;;;;;;;0.20;0.20;;;;;;;8.34;100.00;101502.22;5007447;28;20049;-80
2021/10/16 09:11:46;;;;;;;0.20;0.20;;;;;;;8.29;100.00;101504.81;5004024;28;20064;-82
2021/10/16 09:14:21;;;;;;;0.20;0.20;;;;;;;8.34;100.00;101499.50;5023601;28;20046;-82
2021/10/16 09:16:56;;;;;;;0.20;0.20;;;;;;;8.28;100.00;101503.16;5007664;28;20301;-82
2021/10/16 09:19:31;;;;;;;0.20;0.20;;;;;;;8.20;100.00;101490.00;5005509;28;20050;-81
2021/10/16 09:22:06;;;;;;;0.20;0.20;;;;;;;8.20;100.00;101503.56;5011155;28;20045;-81
2021/10/16 09:24:41;;;;;;;0.10;0.10;;;;;;;8.07;100.00;101514.72;5012076;28;20053;-82
2021/10/16 09:27:18;;;;;;;0.20;0.20;;;;;;;8.04;100.00;101510.59;5012521;28;20049;-82
2021/10/16 09:29:54;;;;;;;0.30;0.30;;;;;;;8.06;100.00;101494.91;5009819;28;20061;-82
2021/10/16 09:32:24;;;;;;;0.20;0.20;;;;;;;8.21;100.00;101498.97;5005762;28;20053;-82
2021/10/16 09:35:00;;;;;;;0.20;0.20;;;;;;;8.31;100.00;101507.28;5008250;28;20073;-82
2021/10/16 09:37:28;;;;;;;0.20;0.20;;;;;;;8.33;100.00;101505.97;5005458;28;20049;-81
2021/10/16 09:40:04;;;;;;;0.20;0.20;;;;;;;8.47;100.00;101500.28;5010213;28;20057;-81
2021/10/16 09:42:42;;;;;;;0.20;0.20;;;;;;;8.37;100.00;101494.63;5005052;28;20410;-82
2021/10/16 09:45:16;;;;;;;0.20;0.20;;;;;;;8.39;100.00;101504.16;5005749;28;20062;-82
2021/10/16 09:47:54;;;;;;;0.25;0.25;;;;;;;8.51;100.00;101504.97;5022891;28;20053;-82
2021/10/16 09:50:27;;;;;;;0.22;0.22;;;;;;;8.64;100.00;101509.22;5021172;28;20057;-82
2021/10/16 09:53:01;;;;;;;0.20;0.20;;;;;;;8.70;100.00;101507.44;5004890;28;20054;-81
2021/10/16 09:55:34;;;;;;;0.20;0.20;;;;;;;8.79;100.00;101505.94;5003317;28;20061;-81
2021/10/16 09:58:04;;;;;;;0.30;0.30;;;;;;;8.84;100.00;101508.75;5003762;28;20072;-82
2021/10/16 10:00:38;;;;;;;0.20;0.20;;;;;;;8.94;100.00;101512.69;5007535;28;20068;-82
2021/10/16 10:03:10;;;;;;;0.20;0.20;;;;;;;8.95;100.00;101508.88;5007058;28;20045;-81
2021/10/16 10:05:39;;;;;;;0.17;0.17;;;;;;;9.08;100.00;101502.31;5007746;28;20057;-81
2021/10/16 10:08:13;;;;;;;0.10;0.10;;;;;;;9.21;100.00;101501.97;5009506;28;20049;-81
2021/10/16 10:10:47;;;;;;;0.20;0.20;;;;;;;9.24;100.00;101506.88;4993843;28;20395;-80
2021/10/16 10:13:26;;;;;;;0.20;0.20;;;;;;;9.26;100.00;101504.72;5016279;28;20518;-80
2021/10/16 10:15:59;;;;;;;0.20;0.20;;;;;;;9.41;100.00;101506.84;5029160;28;20046;-80
2021/10/16 10:21:23;;;;;;;0.20;0.20;;;;;;;9.55;100.00;101501.84;5002323;28;20050;-81
2021/10/16 10:23:53;;;;;;;0.20;0.20;;;;;;;9.57;100.00;101505.16;5010984;28;20589;-81
2021/10/16 10:26:32;;;;;;;0.20;0.20;;;;;;;9.61;100.00;101494.56;5009038;28;20054;-80
2021/10/16 10:29:08;;;;;;;0.20;0.20;;;;;;;9.64;100.00;101502.22;5014232;28;20045;-81
2021/10/16 10:31:56;;;;;;;0.20;0.20;;;;;;;9.61;100.00;101505.44;5018564;28;20060;-81
2021/10/16 10:34:32;;;;;;;0.30;0.30;;;;;;;9.75;100.00;101506.72;5021136;28;20054;-81
2021/10/16 10:37:09;;;;;;;0.20;0.20;;;;;;;9.63;100.00;101506.84;5012476;28;20056;-80
2021/10/16 10:39:51;;;;;;;0.20;0.20;;;;;;;9.64;100.00;101499.50;5013787;28;20034;-81
2021/10/16 10:42:54;;;;;;;0.20;0.20;;;;;;;9.65;100.00;101501.16;5014943;28;20061;-80
2021/10/16 10:45:40;;;;;;;0.30;0.30;;;;;;;9.64;100.00;101500.34;5016268;28;20075;-80
2021/10/16 10:48:16;;;;;;;0.20;0.20;;;;;;;9.64;100.00;101494.91;5033290;28;20663;-82
2021/10/16 10:50:56;;;;;;;0.20;0.20;;;;;;;9.80;100.00;101489.63;5012430;28;20046;-80
2021/10/16 10:53:38;;;;;;;0.17;0.17;;;;;;;9.81;100.00;101494.81;5016332;28;20042;-80
2021/10/16 10:56:22;;;;;;;0.20;0.20;;;;;;;9.86;100.00;101483.19;5007857;28;20062;-81
2021/10/16 10:59:03;;;;;;;0.20;0.20;;;;;;;9.87;100.00;101488.38;5029256;28;20701;-82
2021/10/16 11:01:59;;;;;;;0.20;0.20;;;;;;;9.70;100.00;101490.34;5013638;28;20046;-81
2021/10/16 11:04:42;;;;;;;0.20;0.20;;;;;;;9.67;100.00;101485.44;5018515;28;20054;-82
2021/10/16 11:07:39;;;;;;;0.30;0.30;;;;;;;9.52;100.00;101480.63;5029092;28;20050;-80
2021/10/16 11:10:12;;;;;;;0.20;0.20;;;;;;;9.47;100.00;101483.28;5012205;28;20053;-85
2021/10/16 11:12:46;;;;;;;0.20;0.20;;;;;;;9.49;100.00;101481.94;5010731;28;20046;-85
2021/10/16 11:15:20;;;;;;;0.20;0.20;;;;;;;9.61;100.00;101481.81;5026912;28;20391;-85
2021/10/16 11:17:54;;;;;;;0.20;0.20;;;;;;;9.65;100.00;101482.97;5021284;28;20053;-85
2021/10/16 11:20:33;;;;;;;0.30;0.30;;;;;;;9.68;100.00;101481.59;5018666;28;20064;-86
2021/10/16 11:23:18;;;;;;;0.30;0.30;;;;;;;9.63;100.00;101473.41;5011239;28;20053;-85
2021/10/16 11:25:56;;;;;;;0.20;0.20;;;;;;;9.63;100.00;101481.56;5011721;28;20069;-86
2021/10/16 11:28:31;;;;;;;0.28;0.28;;;;;;;9.52;100.00;101481.44;5006397;28;20045;-85
2021/10/16 11:31:02;;;;;;;0.30;0.30;;;;;;;9.42;100.00;101478.59;5025982;28;20051;-84
2021/10/16 11:33:36;;;;;;;0.20;0.20;;;;;;;9.39;100.00;101481.81;5021030;28;20051;-86
2021/10/16 11:36:13;;;;;;;0.20;0.20;;;;;;;9.35;100.00;101476.06;5007644;28;20058;-84
2021/10/16 11:38:41;;;;;;;0.20;0.20;;;;;;;9.46;100.00;101476.19;5010124;28;20060;-84
2021/10/16 11:41:14;;;;;;;0.20;0.20;;;;;;;9.33;100.00;101480.09;5008541;28;20045;-84
2021/10/16 11:43:49;;;;;;;0.10;0.10;;;;;;;9.40;100.00;101471.78;5007974;28;20829;-84
2021/10/16 11:46:23;;;;;;;0.28;0.28;;;;;;;9.34;100.00;101465.47;5008520;28;20061;-84
2021/10/16 11:48:58;;;;;;;0.30;0.30;;;;;;;9.42;100.00;101467.72;5008715;28;20479;-83
2021/10/16 11:51:31;;;;;;;0.20;0.20;;;;;;;9.47;100.00;101467.81;5010718;28;20041;-85
2021/10/16 11:54:16;;;;;;;0.20;0.20;;;;;;;9.46;100.00;101466.16;5022063;28;20068;-84
2021/10/16 11:56:57;;;;;;;0.20;0.20;;;;;;;9.47;100.00;101465.09;5009015;28;20062;-86
2021/10/16 11:59:30;;;;;;;0.20;0.20;;;;;;;9.49;100.00;101471.06;5006506;28;20041;-84
2021/10/16 12:02:05;;;;;;;0.20;0.20;;;;;;;9.63;100.00;101473.41;5008060;28;20057;-85